sensor_id;sensor_type;location;lat;lon;timestamp;P1;durP1;ratioP1;P2;durP2;ratioP2
1218;SDS011;599;51.494;6.670;2022-09-24T00:01:12;27.83;;;22.27;;
1218;SDS011;599;51.494;6.670;2022-09-24T00:03:40;24.77;;;21.05;;
1218;SDS011;599;51.494;6.670;2022-09-24T00:06:09;23.75;;;21.27;;
1218;SDS011;599;51.494;6.670;2022-09-24T00:08:40;25.30;;;22.58;;
1218;SDS011;599;51.494;6.670;2022-09-24T00:11:06;25.57;;;21.17;;
1218;SDS011;599;51.494;6.670;2022-09-24T00:13:36;24.05;;;20.27;;
1218;SDS011;599;51.494;6.670;2022-09-24T00:16:03;25.83;;;22.27;;
1218;SDS011;599;51.494;6.670;2022-09-24T00:18:32;25.00;;;22.40;;
1218;SDS011;599;51.494;6.670;2022-09-24T00:20:58;27.23;;;23.37;;
1218;SDS011;599;51.494;6.670;2022-09-24T00:23:24;26.80;;;24.03;;
1218;SDS011;599;51.494;6.670;2022-09-24T00:25:51;28.25;;;25.23;;
1218;SDS011;599;51.494;6.670;2022-09-24T00:28:35;24.50;;;21.90;;
1218;SDS011;599;51.494;6.670;2022-09-24T00:31:03;25.10;;;22.40;;
1218;SDS011;599;51.494;6.670;2022-09-24T00:33:31;28.42;;;20.58;;
1218;SDS011;599;51.494;6.670;2022-09-24T00:35:59;27.13;;;21.48;;
1218;SDS011;599;51.494;6.670;2022-09-24T00:38:29;24.83;;;21.02;;
1218;SDS011;599;51.494;6.670;2022-09-24T00:40:56;23.10;;;20.33;;
1218;SDS011;599;51.494;6.670;2022-09-24T00:43:28;23.40;;;21.00;;
1218;SDS011;599;51.494;6.670;2022-09-24T00:46:43;22.60;;;20.35;;
1218;SDS011;599;51.494;6.670;2022-09-24T00:48:50;26.55;;;21.58;;
1218;SDS011;599;51.494;6.670;2022-09-24T00:51:22;23.83;;;20.85;;
1218;SDS011;599;51.494;6.670;2022-09-24T00:53:51;23.45;;;21.05;;
1218;SDS011;599;51.494;6.670;2022-09-24T00:56:24;27.80;;;23.38;;
1218;SDS011;599;51.494;6.670;2022-09-24T00:58:52;23.15;;;20.65;;
1218;SDS011;599;51.494;6.670;2022-09-24T01:01:21;24.70;;;22.10;;
1218;SDS011;599;51.494;6.670;2022-09-24T01:03:49;27.00;;;24.10;;
1218;SDS011;599;51.494;6.670;2022-09-24T01:06:18;30.13;;;25.33;;
1218;SDS011;599;51.494;6.670;2022-09-24T01:08:44;25.40;;;22.80;;
1218;SDS011;599;51.494;6.670;2022-09-24T01:16:48;26.00;;;23.20;;
1218;SDS011;599;51.494;6.670;2022-09-24T01:19:38;28.80;;;25.38;;
1218;SDS011;599;51.494;6.670;2022-09-24T01:22:34;28.77;;;25.73;;
1218;SDS011;599;51.494;6.670;2022-09-24T01:25:49;27.27;;;24.30;;
1218;SDS011;599;51.494;6.670;2022-09-24T01:32:10;38.60;;;28.45;;
1218;SDS011;599;51.494;6.670;2022-09-24T01:34:58;31.63;;;27.20;;
1218;SDS011;599;51.494;6.670;2022-09-24T01:37:50;33.72;;;29.73;;
1218;SDS011;599;51.494;6.670;2022-09-24T01:40:21;29.13;;;26.08;;
1218;SDS011;599;51.494;6.670;2022-09-24T01:42:51;28.50;;;25.55;;
1218;SDS011;599;51.494;6.670;2022-09-24T01:45:20;32.60;;;28.70;;
1218;SDS011;599;51.494;6.670;2022-09-24T01:47:46;32.08;;;28.75;;
1218;SDS011;599;51.494;6.670;2022-09-24T01:50:15;31.63;;;28.08;;
1218;SDS011;599;51.494;6.670;2022-09-24T01:52:45;41.70;;;32.65;;
1218;SDS011;599;51.494;6.670;2022-09-24T01:55:32;35.50;;;31.60;;
1218;SDS011;599;51.494;6.670;2022-09-24T01:58:06;43.97;;;38.40;;
1218;SDS011;599;51.494;6.670;2022-09-24T02:00:36;38.78;;;33.22;;
1218;SDS011;599;51.494;6.670;2022-09-24T02:03:15;43.05;;;34.92;;
1218;SDS011;599;51.494;6.670;2022-09-24T02:08:47;55.45;;;48.92;;
1218;SDS011;599;51.494;6.670;2022-09-24T02:13:56;59.00;;;46.33;;
1218;SDS011;599;51.494;6.670;2022-09-24T02:16:37;51.92;;;43.25;;
1218;SDS011;599;51.494;6.670;2022-09-24T02:19:13;42.90;;;36.65;;
1218;SDS011;599;51.494;6.670;2022-09-24T02:21:43;47.05;;;39.80;;
1218;SDS011;599;51.494;6.670;2022-09-24T02:24:13;96.63;;;78.32;;
1218;SDS011;599;51.494;6.670;2022-09-24T02:26:58;43.95;;;35.95;;
1218;SDS011;599;51.494;6.670;2022-09-24T02:29:25;39.00;;;34.72;;
1218;SDS011;599;51.494;6.670;2022-09-24T02:31:51;38.23;;;34.13;;
1218;SDS011;599;51.494;6.670;2022-09-24T02:34:27;38.10;;;32.63;;
1218;SDS011;599;51.494;6.670;2022-09-24T02:37:02;36.63;;;31.70;;
1218;SDS011;599;51.494;6.670;2022-09-24T02:39:31;38.60;;;32.85;;
1218;SDS011;599;51.494;6.670;2022-09-24T02:41:58;38.15;;;30.90;;
1218;SDS011;599;51.494;6.670;2022-09-24T02:44:25;35.85;;;32.15;;
1218;SDS011;599;51.494;6.670;2022-09-24T02:46:51;39.58;;;30.63;;
1218;SDS011;599;51.494;6.670;2022-09-24T02:49:16;39.77;;;30.83;;
1218;SDS011;599;51.494;6.670;2022-09-24T02:51:42;35.80;;;30.20;;
1218;SDS011;599;51.494;6.670;2022-09-24T02:54:09;32.40;;;27.83;;
1218;SDS011;599;51.494;6.670;2022-09-24T02:56:35;32.40;;;28.90;;
1218;SDS011;599;51.494;6.670;2022-09-24T02:59:01;31.65;;;28.23;;
1218;SDS011;599;51.494;6.670;2022-09-24T03:01:28;34.53;;;27.98;;
1218;SDS011;599;51.494;6.670;2022-09-24T03:03:55;31.00;;;27.67;;
1218;SDS011;599;51.494;6.670;2022-09-24T03:06:21;30.73;;;26.55;;
1218;SDS011;599;51.494;6.670;2022-09-24T03:08:49;33.33;;;28.02;;
1218;SDS011;599;51.494;6.670;2022-09-24T03:11:16;30.38;;;27.10;;
1218;SDS011;599;51.494;6.670;2022-09-24T03:13:42;30.13;;;26.90;;
1218;SDS011;599;51.494;6.670;2022-09-24T03:16:08;30.23;;;27.02;;
1218;SDS011;599;51.494;6.670;2022-09-24T03:18:34;32.20;;;26.33;;
1218;SDS011;599;51.494;6.670;2022-09-24T03:21:01;33.03;;;26.88;;
1218;SDS011;599;51.494;6.670;2022-09-24T03:23:30;29.90;;;25.70;;
1218;SDS011;599;51.494;6.670;2022-09-24T03:25:57;32.53;;;25.70;;
1218;SDS011;599;51.494;6.670;2022-09-24T03:28:23;32.20;;;27.85;;
1218;SDS011;599;51.494;6.670;2022-09-24T03:30:49;29.20;;;24.83;;
1218;SDS011;599;51.494;6.670;2022-09-24T03:33:31;32.95;;;25.70;;
1218;SDS011;599;51.494;6.670;2022-09-24T03:38:34;31.45;;;26.08;;
1218;SDS011;599;51.494;6.670;2022-09-24T03:41:03;35.38;;;26.55;;
1218;SDS011;599;51.494;6.670;2022-09-24T03:43:30;38.20;;;28.15;;
1218;SDS011;599;51.494;6.670;2022-09-24T03:45:57;28.63;;;24.75;;
1218;SDS011;599;51.494;6.670;2022-09-24T03:48:23;29.45;;;23.60;;
1218;SDS011;599;51.494;6.670;2022-09-24T03:50:51;25.77;;;23.02;;
1218;SDS011;599;51.494;6.670;2022-09-24T03:53:18;33.42;;;24.60;;
1218;SDS011;599;51.494;6.670;2022-09-24T03:55:45;27.27;;;22.80;;
1218;SDS011;599;51.494;6.670;2022-09-24T03:58:14;28.55;;;23.38;;
1218;SDS011;599;51.494;6.670;2022-09-24T04:00:40;27.48;;;23.88;;
1218;SDS011;599;51.494;6.670;2022-09-24T04:03:07;28.80;;;25.38;;
1218;SDS011;599;51.494;6.670;2022-09-24T04:05:33;29.10;;;24.27;;
1218;SDS011;599;51.494;6.670;2022-09-24T04:08:00;25.60;;;22.75;;
1218;SDS011;599;51.494;6.670;2022-09-24T04:10:27;28.25;;;24.67;;
1218;SDS011;599;51.494;6.670;2022-09-24T04:12:54;32.97;;;24.50;;
1218;SDS011;599;51.494;6.670;2022-09-24T04:15:20;25.95;;;23.02;;
1218;SDS011;599;51.494;6.670;2022-09-24T04:17:52;28.07;;;22.73;;
1218;SDS011;599;51.494;6.670;2022-09-24T04:20:24;27.17;;;23.20;;
1218;SDS011;599;51.494;6.670;2022-09-24T04:22:53;25.88;;;22.83;;
1218;SDS011;599;51.494;6.670;2022-09-24T04:25:22;26.65;;;22.10;;
1218;SDS011;599;51.494;6.670;2022-09-24T04:27:53;27.00;;;23.08;;
1218;SDS011;599;51.494;6.670;2022-09-24T04:30:21;29.90;;;23.77;;
1218;SDS011;599;51.494;6.670;2022-09-24T04:32:49;26.90;;;21.00;;
1218;SDS011;599;51.494;6.670;2022-09-24T04:35:16;29.45;;;23.05;;
1218;SDS011;599;51.494;6.670;2022-09-24T04:37:44;29.60;;;23.92;;
1218;SDS011;599;51.494;6.670;2022-09-24T04:40:12;25.90;;;20.70;;
1218;SDS011;599;51.494;6.670;2022-09-24T04:42:40;28.38;;;22.10;;
1218;SDS011;599;51.494;6.670;2022-09-24T04:45:09;29.13;;;25.40;;
1218;SDS011;599;51.494;6.670;2022-09-24T04:47:36;29.33;;;25.15;;
1218;SDS011;599;51.494;6.670;2022-09-24T04:50:05;29.98;;;22.77;;
1218;SDS011;599;51.494;6.670;2022-09-24T04:52:35;29.67;;;23.77;;
1218;SDS011;599;51.494;6.670;2022-09-24T04:55:03;29.10;;;22.90;;
1218;SDS011;599;51.494;6.670;2022-09-24T04:57:30;30.08;;;23.27;;
1218;SDS011;599;51.494;6.670;2022-09-24T05:00:00;29.23;;;24.38;;
1218;SDS011;599;51.494;6.670;2022-09-24T05:02:31;28.20;;;23.23;;
1218;SDS011;599;51.494;6.670;2022-09-24T05:04:57;27.55;;;24.25;;
1218;SDS011;599;51.494;6.670;2022-09-24T05:07:23;30.35;;;24.95;;
1218;SDS011;599;51.494;6.670;2022-09-24T05:09:49;28.20;;;23.00;;
1218;SDS011;599;51.494;6.670;2022-09-24T05:12:15;31.13;;;24.80;;
1218;SDS011;599;51.494;6.670;2022-09-24T05:14:43;27.95;;;22.23;;
1218;SDS011;599;51.494;6.670;2022-09-24T05:17:08;29.00;;;23.63;;
1218;SDS011;599;51.494;6.670;2022-09-24T05:19:34;26.77;;;22.93;;
1218;SDS011;599;51.494;6.670;2022-09-24T05:22:00;26.07;;;23.10;;
1218;SDS011;599;51.494;6.670;2022-09-24T05:24:26;27.90;;;22.57;;
1218;SDS011;599;51.494;6.670;2022-09-24T05:26:52;26.63;;;23.73;;
1218;SDS011;599;51.494;6.670;2022-09-24T05:29:34;30.13;;;22.45;;
1218;SDS011;599;51.494;6.670;2022-09-24T05:32:10;24.90;;;21.10;;
1218;SDS011;599;51.494;6.670;2022-09-24T05:34:39;28.35;;;23.27;;
1218;SDS011;599;51.494;6.670;2022-09-24T05:37:08;25.15;;;21.73;;
1218;SDS011;599;51.494;6.670;2022-09-24T05:39:34;28.25;;;23.27;;
1218;SDS011;599;51.494;6.670;2022-09-24T05:42:01;25.15;;;22.20;;
1218;SDS011;599;51.494;6.670;2022-09-24T05:44:30;27.70;;;22.27;;
1218;SDS011;599;51.494;6.670;2022-09-24T05:46:56;25.40;;;21.33;;
1218;SDS011;599;51.494;6.670;2022-09-24T05:49:22;26.50;;;21.67;;
1218;SDS011;599;51.494;6.670;2022-09-24T05:51:48;23.47;;;20.97;;
1218;SDS011;599;51.494;6.670;2022-09-24T05:54:16;26.67;;;21.80;;
1218;SDS011;599;51.494;6.670;2022-09-24T05:56:42;25.25;;;21.38;;
1218;SDS011;599;51.494;6.670;2022-09-24T05:59:08;30.45;;;22.70;;
1218;SDS011;599;51.494;6.670;2022-09-24T06:01:34;24.50;;;21.90;;
1218;SDS011;599;51.494;6.670;2022-09-24T06:04:00;27.43;;;22.87;;
1218;SDS011;599;51.494;6.670;2022-09-24T06:06:26;30.85;;;22.05;;
1218;SDS011;599;51.494;6.670;2022-09-24T06:08:53;23.63;;;21.02;;
1218;SDS011;599;51.494;6.670;2022-09-24T06:11:20;25.15;;;20.58;;
1218;SDS011;599;51.494;6.670;2022-09-24T06:13:48;25.25;;;21.15;;
1218;SDS011;599;51.494;6.670;2022-09-24T06:16:18;28.02;;;23.67;;
1218;SDS011;599;51.494;6.670;2022-09-24T06:18:44;26.90;;;23.98;;
1218;SDS011;599;51.494;6.670;2022-09-24T06:21:13;28.23;;;23.52;;
1218;SDS011;599;51.494;6.670;2022-09-24T06:23:44;33.15;;;24.02;;
1218;SDS011;599;51.494;6.670;2022-09-24T06:26:11;26.58;;;22.63;;
1218;SDS011;599;51.494;6.670;2022-09-24T06:28:38;32.20;;;26.00;;
1218;SDS011;599;51.494;6.670;2022-09-24T06:31:06;26.83;;;23.92;;
1218;SDS011;599;51.494;6.670;2022-09-24T06:33:34;27.98;;;21.50;;
1218;SDS011;599;51.494;6.670;2022-09-24T06:36:02;27.95;;;22.77;;
1218;SDS011;599;51.494;6.670;2022-09-24T06:38:29;35.53;;;26.15;;
1218;SDS011;599;51.494;6.670;2022-09-24T06:40:59;30.10;;;23.38;;
1218;SDS011;599;51.494;6.670;2022-09-24T06:43:28;28.23;;;24.10;;
1218;SDS011;599;51.494;6.670;2022-09-24T06:45:56;31.60;;;25.00;;
1218;SDS011;599;51.494;6.670;2022-09-24T06:48:23;28.85;;;23.58;;
1218;SDS011;599;51.494;6.670;2022-09-24T06:50:50;30.40;;;25.27;;
1218;SDS011;599;51.494;6.670;2022-09-24T06:53:19;27.95;;;24.02;;
1218;SDS011;599;51.494;6.670;2022-09-24T06:55:45;27.00;;;23.85;;
1218;SDS011;599;51.494;6.670;2022-09-24T06:58:16;31.25;;;26.80;;
1218;SDS011;599;51.494;6.670;2022-09-24T07:00:52;28.75;;;23.85;;
1218;SDS011;599;51.494;6.670;2022-09-24T07:03:23;29.40;;;25.75;;
1218;SDS011;599;51.494;6.670;2022-09-24T07:05:52;30.58;;;27.38;;
1218;SDS011;599;51.494;6.670;2022-09-24T07:08:18;29.83;;;26.40;;
1218;SDS011;599;51.494;6.670;2022-09-24T07:10:45;32.60;;;25.42;;
1218;SDS011;599;51.494;6.670;2022-09-24T07:13:17;29.55;;;25.70;;
1218;SDS011;599;51.494;6.670;2022-09-24T07:15:45;31.23;;;25.75;;
1218;SDS011;599;51.494;6.670;2022-09-24T07:18:14;28.98;;;25.73;;
1218;SDS011;599;51.494;6.670;2022-09-24T07:20:42;30.75;;;26.73;;
1218;SDS011;599;51.494;6.670;2022-09-24T07:23:09;30.95;;;26.45;;
1218;SDS011;599;51.494;6.670;2022-09-24T07:25:37;28.77;;;25.15;;
1218;SDS011;599;51.494;6.670;2022-09-24T07:28:05;28.52;;;24.95;;
1218;SDS011;599;51.494;6.670;2022-09-24T07:30:34;30.45;;;24.40;;
1218;SDS011;599;51.494;6.670;2022-09-24T07:33:02;31.45;;;27.38;;
1218;SDS011;599;51.494;6.670;2022-09-24T07:35:29;28.60;;;24.85;;
1218;SDS011;599;51.494;6.670;2022-09-24T07:37:56;30.35;;;24.70;;
1218;SDS011;599;51.494;6.670;2022-09-24T07:40:23;26.60;;;23.65;;
1218;SDS011;599;51.494;6.670;2022-09-24T07:42:51;26.55;;;23.23;;
1218;SDS011;599;51.494;6.670;2022-09-24T07:45:20;28.17;;;24.40;;
1218;SDS011;599;51.494;6.670;2022-09-24T07:48:00;29.00;;;23.52;;
1218;SDS011;599;51.494;6.670;2022-09-24T07:50:29;29.20;;;23.25;;
1218;SDS011;599;51.494;6.670;2022-09-24T07:52:58;26.35;;;21.73;;
1218;SDS011;599;51.494;6.670;2022-09-24T07:55:27;25.67;;;22.98;;
1218;SDS011;599;51.494;6.670;2022-09-24T07:57:54;27.23;;;21.25;;
1218;SDS011;599;51.494;6.670;2022-09-24T08:00:22;23.60;;;21.08;;
1218;SDS011;599;51.494;6.670;2022-09-24T08:02:49;30.40;;;21.83;;
1218;SDS011;599;51.494;6.670;2022-09-24T08:05:17;24.98;;;21.15;;
1218;SDS011;599;51.494;6.670;2022-09-24T08:07:50;21.90;;;18.63;;
1218;SDS011;599;51.494;6.670;2022-09-24T08:10:19;22.58;;;20.08;;
1218;SDS011;599;51.494;6.670;2022-09-24T08:12:46;25.13;;;20.15;;
1218;SDS011;599;51.494;6.670;2022-09-24T08:15:12;23.00;;;19.77;;
1218;SDS011;599;51.494;6.670;2022-09-24T08:17:40;19.85;;;17.77;;
1218;SDS011;599;51.494;6.670;2022-09-24T08:20:07;22.50;;;19.02;;
1218;SDS011;599;51.494;6.670;2022-09-24T08:22:34;20.95;;;18.45;;
1218;SDS011;599;51.494;6.670;2022-09-24T08:25:00;24.27;;;18.42;;
1218;SDS011;599;51.494;6.670;2022-09-24T08:27:28;25.15;;;17.35;;
1218;SDS011;599;51.494;6.670;2022-09-24T08:29:57;19.73;;;16.58;;
1218;SDS011;599;51.494;6.670;2022-09-24T08:32:25;23.17;;;16.75;;
1218;SDS011;599;51.494;6.670;2022-09-24T08:34:53;19.45;;;16.17;;
1218;SDS011;599;51.494;6.670;2022-09-24T08:37:20;18.25;;;16.05;;
1218;SDS011;599;51.494;6.670;2022-09-24T08:39:46;17.80;;;14.23;;
1218;SDS011;599;51.494;6.670;2022-09-24T08:42:18;15.55;;;13.98;;
1218;SDS011;599;51.494;6.670;2022-09-24T08:44:58;12.45;;;11.25;;
1218;SDS011;599;51.494;6.670;2022-09-24T08:47:45;19.17;;;13.88;;
1218;SDS011;599;51.494;6.670;2022-09-24T08:50:26;13.95;;;12.45;;
1218;SDS011;599;51.494;6.670;2022-09-24T08:53:04;13.30;;;10.80;;
1218;SDS011;599;51.494;6.670;2022-09-24T08:55:48;14.52;;;12.40;;
1218;SDS011;599;51.494;6.670;2022-09-24T08:59:09;15.77;;;12.68;;
1218;SDS011;599;51.494;6.670;2022-09-24T09:01:22;13.45;;;12.05;;
1218;SDS011;599;51.494;6.670;2022-09-24T09:07:05;14.48;;;11.27;;
1218;SDS011;599;51.494;6.670;2022-09-24T09:09:53;12.15;;;10.90;;
1218;SDS011;599;51.494;6.670;2022-09-24T09:12:30;12.15;;;9.38;;
1218;SDS011;599;51.494;6.670;2022-09-24T09:17:50;10.82;;;9.73;;
1218;SDS011;599;51.494;6.670;2022-09-24T09:20:45;17.83;;;10.57;;
1218;SDS011;599;51.494;6.670;2022-09-24T09:23:47;11.10;;;9.70;;
1218;SDS011;599;51.494;6.670;2022-09-24T09:26:11;16.17;;;9.77;;
1218;SDS011;599;51.494;6.670;2022-09-24T09:28:37;12.30;;;10.13;;
1218;SDS011;599;51.494;6.670;2022-09-24T09:31:11;13.88;;;9.48;;
1218;SDS011;599;51.494;6.670;2022-09-24T09:45:17;13.20;;;11.73;;
1218;SDS011;599;51.494;6.670;2022-09-24T09:48:00;15.10;;;10.43;;
1218;SDS011;599;51.494;6.670;2022-09-24T09:50:32;11.10;;;10.00;;
1218;SDS011;599;51.494;6.670;2022-09-24T09:53:24;11.80;;;9.38;;
1218;SDS011;599;51.494;6.670;2022-09-24T09:55:53;12.50;;;11.20;;
1218;SDS011;599;51.494;6.670;2022-09-24T09:58:31;16.88;;;10.02;;
1218;SDS011;599;51.494;6.670;2022-09-24T10:03:32;11.73;;;10.45;;
1218;SDS011;599;51.494;6.670;2022-09-24T10:06:21;13.73;;;9.52;;
1218;SDS011;599;51.494;6.670;2022-09-24T10:08:51;11.52;;;9.32;;
1218;SDS011;599;51.494;6.670;2022-09-24T10:11:18;11.38;;;9.82;;
1218;SDS011;599;51.494;6.670;2022-09-24T10:13:59;11.57;;;9.50;;
1218;SDS011;599;51.494;6.670;2022-09-24T10:16:27;10.30;;;7.93;;
1218;SDS011;599;51.494;6.670;2022-09-24T10:18:53;8.70;;;7.90;;
1218;SDS011;599;51.494;6.670;2022-09-24T10:21:25;9.93;;;7.78;;
1218;SDS011;599;51.494;6.670;2022-09-24T10:24:04;9.85;;;7.25;;
1218;SDS011;599;51.494;6.670;2022-09-24T10:26:40;9.60;;;7.80;;
1218;SDS011;599;51.494;6.670;2022-09-24T10:29:11;6.72;;;6.00;;
1218;SDS011;599;51.494;6.670;2022-09-24T10:32:21;6.80;;;5.43;;
1218;SDS011;599;51.494;6.670;2022-09-24T10:34:56;8.07;;;6.63;;
1218;SDS011;599;51.494;6.670;2022-09-24T10:37:30;8.70;;;7.10;;
1218;SDS011;599;51.494;6.670;2022-09-24T10:39:56;8.73;;;7.03;;
1218;SDS011;599;51.494;6.670;2022-09-24T10:42:24;9.70;;;7.60;;
1218;SDS011;599;51.494;6.670;2022-09-24T10:44:53;8.73;;;6.13;;
1218;SDS011;599;51.494;6.670;2022-09-24T10:52:53;8.50;;;7.27;;
1218;SDS011;599;51.494;6.670;2022-09-24T10:58:43;9.37;;;7.77;;
1218;SDS011;599;51.494;6.670;2022-09-24T11:02:16;9.60;;;8.23;;
1218;SDS011;599;51.494;6.670;2022-09-24T11:04:27;9.40;;;7.90;;
1218;SDS011;599;51.494;6.670;2022-09-24T11:19:09;16.70;;;8.20;;
1218;SDS011;599;51.494;6.670;2022-09-24T11:30:43;10.17;;;7.80;;
1218;SDS011;599;51.494;6.670;2022-09-24T11:33:25;10.30;;;8.20;;
1218;SDS011;599;51.494;6.670;2022-09-24T11:42:00;9.07;;;7.00;;
1218;SDS011;599;51.494;6.670;2022-09-24T11:56:29;8.33;;;6.27;;
1218;SDS011;599;51.494;6.670;2022-09-24T11:59:20;9.87;;;8.83;;
1218;SDS011;599;51.494;6.670;2022-09-24T12:01:57;8.70;;;7.40;;
1218;SDS011;599;51.494;6.670;2022-09-24T12:10:42;10.10;;;7.63;;
1218;SDS011;599;51.494;6.670;2022-09-24T12:14:06;8.47;;;7.13;;
1218;SDS011;599;51.494;6.670;2022-09-24T12:16:45;9.37;;;7.17;;
1218;SDS011;599;51.494;6.670;2022-09-24T12:21:50;16.70;;;7.20;;
1218;SDS011;599;51.494;6.670;2022-09-24T12:24:20;11.73;;;8.47;;
1218;SDS011;599;51.494;6.670;2022-09-24T12:27:20;8.90;;;7.00;;
1218;SDS011;599;51.494;6.670;2022-09-24T12:33:16;10.30;;;9.27;;
1218;SDS011;599;51.494;6.670;2022-09-24T12:38:53;14.07;;;7.63;;
1218;SDS011;599;51.494;6.670;2022-09-24T12:41:34;9.10;;;7.90;;
1218;SDS011;599;51.494;6.670;2022-09-24T12:46:39;12.20;;;8.27;;
1218;SDS011;599;51.494;6.670;2022-09-24T12:49:31;10.53;;;9.00;;
1218;SDS011;599;51.494;6.670;2022-09-24T12:52:14;8.80;;;7.57;;
1218;SDS011;599;51.494;6.670;2022-09-24T12:54:46;9.67;;;8.23;;
1218;SDS011;599;51.494;6.670;2022-09-24T12:57:24;9.90;;;8.30;;
1218;SDS011;599;51.494;6.670;2022-09-24T13:00:04;9.60;;;8.60;;
1218;SDS011;599;51.494;6.670;2022-09-24T13:03:05;10.70;;;7.57;;
1218;SDS011;599;51.494;6.670;2022-09-24T13:06:00;11.33;;;8.73;;
1218;SDS011;599;51.494;6.670;2022-09-24T13:08:35;11.03;;;9.77;;
1218;SDS011;599;51.494;6.670;2022-09-24T13:11:04;9.53;;;8.53;;
1218;SDS011;599;51.494;6.670;2022-09-24T13:13:59;12.03;;;9.57;;
1218;SDS011;599;51.494;6.670;2022-09-24T13:16:37;9.47;;;8.53;;
1218;SDS011;599;51.494;6.670;2022-09-24T13:19:29;11.00;;;9.00;;
1218;SDS011;599;51.494;6.670;2022-09-24T13:22:02;9.87;;;8.97;;
1218;SDS011;599;51.494;6.670;2022-09-24T13:24:33;12.10;;;8.90;;
1218;SDS011;599;51.494;6.670;2022-09-24T13:27:36;9.63;;;8.43;;
1218;SDS011;599;51.494;6.670;2022-09-24T13:30:16;9.43;;;8.27;;
1218;SDS011;599;51.494;6.670;2022-09-24T13:35:46;9.17;;;7.60;;
1218;SDS011;599;51.494;6.670;2022-09-24T13:38:28;16.77;;;12.00;;
1218;SDS011;599;51.494;6.670;2022-09-24T13:41:00;20.43;;;11.93;;
1218;SDS011;599;51.494;6.670;2022-09-24T13:43:51;15.80;;;10.60;;
1218;SDS011;599;51.494;6.670;2022-09-24T13:46:23;12.10;;;10.87;;
1218;SDS011;599;51.494;6.670;2022-09-24T13:48:51;13.53;;;11.93;;
1218;SDS011;599;51.494;6.670;2022-09-24T13:51:26;16.10;;;11.90;;
1218;SDS011;599;51.494;6.670;2022-09-24T13:56:29;14.17;;;11.33;;
1218;SDS011;599;51.494;6.670;2022-09-24T13:59:02;17.90;;;12.07;;
1218;SDS011;599;51.494;6.670;2022-09-24T14:01:35;17.07;;;11.00;;
1218;SDS011;599;51.494;6.670;2022-09-24T14:04:17;17.08;;;12.35;;
1218;SDS011;599;51.494;6.670;2022-09-24T14:06:49;14.50;;;10.23;;
1218;SDS011;599;51.494;6.670;2022-09-24T14:09:25;11.50;;;10.30;;
1218;SDS011;599;51.494;6.670;2022-09-24T14:12:00;12.20;;;11.00;;
1218;SDS011;599;51.494;6.670;2022-09-24T14:14:42;11.13;;;10.03;;
1218;SDS011;599;51.494;6.670;2022-09-24T14:17:17;19.50;;;12.70;;
1218;SDS011;599;51.494;6.670;2022-09-24T14:19:43;21.60;;;13.10;;
1218;SDS011;599;51.494;6.670;2022-09-24T14:22:11;14.13;;;10.70;;
1218;SDS011;599;51.494;6.670;2022-09-24T14:24:51;12.13;;;10.73;;
1218;SDS011;599;51.494;6.670;2022-09-24T14:27:20;12.87;;;11.53;;
1218;SDS011;599;51.494;6.670;2022-09-24T14:29:49;17.20;;;12.53;;
1218;SDS011;599;51.494;6.670;2022-09-24T14:35:11;12.20;;;9.93;;
1218;SDS011;599;51.494;6.670;2022-09-24T14:37:48;12.68;;;10.75;;
1218;SDS011;599;51.494;6.670;2022-09-24T14:40:18;12.17;;;10.83;;
1218;SDS011;599;51.494;6.670;2022-09-24T14:45:26;15.63;;;12.30;;
1218;SDS011;599;51.494;6.670;2022-09-24T14:48:02;13.50;;;11.38;;
1218;SDS011;599;51.494;6.670;2022-09-24T14:50:40;15.82;;;13.02;;
1218;SDS011;599;51.494;6.670;2022-09-24T14:53:16;14.45;;;12.95;;
1218;SDS011;599;51.494;6.670;2022-09-24T14:55:46;14.73;;;12.32;;
1218;SDS011;599;51.494;6.670;2022-09-24T14:58:35;12.50;;;10.85;;
1218;SDS011;599;51.494;6.670;2022-09-24T15:01:11;13.38;;;11.73;;
1218;SDS011;599;51.494;6.670;2022-09-24T15:06:23;16.35;;;12.20;;
1218;SDS011;599;51.494;6.670;2022-09-24T15:09:04;15.00;;;12.57;;
1218;SDS011;599;51.494;6.670;2022-09-24T15:12:06;16.88;;;12.30;;
1218;SDS011;599;51.494;6.670;2022-09-24T15:14:33;15.57;;;13.32;;
1218;SDS011;599;51.494;6.670;2022-09-24T15:17:19;14.43;;;12.07;;
1218;SDS011;599;51.494;6.670;2022-09-24T15:19:47;14.02;;;12.63;;
1218;SDS011;599;51.494;6.670;2022-09-24T15:22:18;14.10;;;12.60;;
1218;SDS011;599;51.494;6.670;2022-09-24T15:24:47;15.60;;;13.20;;
1218;SDS011;599;51.494;6.670;2022-09-24T15:29:45;18.45;;;15.02;;
1218;SDS011;599;51.494;6.670;2022-09-24T15:32:15;17.70;;;14.97;;
1218;SDS011;599;51.494;6.670;2022-09-24T15:34:45;17.35;;;15.60;;
1218;SDS011;599;51.494;6.670;2022-09-24T15:37:14;19.10;;;15.10;;
1218;SDS011;599;51.494;6.670;2022-09-24T15:39:43;18.45;;;14.75;;
1218;SDS011;599;51.494;6.670;2022-09-24T15:42:17;19.40;;;15.30;;
1218;SDS011;599;51.494;6.670;2022-09-24T15:44:46;15.68;;;13.60;;
1218;SDS011;599;51.494;6.670;2022-09-24T15:47:14;16.90;;;15.13;;
1218;SDS011;599;51.494;6.670;2022-09-24T15:49:41;20.05;;;14.45;;
1218;SDS011;599;51.494;6.670;2022-09-24T15:52:08;18.92;;;14.07;;
1218;SDS011;599;51.494;6.670;2022-09-24T15:54:40;15.10;;;13.60;;
1218;SDS011;599;51.494;6.670;2022-09-24T15:57:06;16.20;;;14.52;;
1218;SDS011;599;51.494;6.670;2022-09-24T15:59:36;16.50;;;15.00;;
1218;SDS011;599;51.494;6.670;2022-09-24T16:02:02;16.37;;;14.73;;
1218;SDS011;599;51.494;6.670;2022-09-24T16:04:47;15.27;;;13.68;;
1218;SDS011;599;51.494;6.670;2022-09-24T16:07:13;17.10;;;15.35;;
1218;SDS011;599;51.494;6.670;2022-09-24T16:09:39;18.03;;;15.27;;
1218;SDS011;599;51.494;6.670;2022-09-24T16:12:05;16.43;;;14.83;;
1218;SDS011;599;51.494;6.670;2022-09-24T16:14:31;17.85;;;15.70;;
1218;SDS011;599;51.494;6.670;2022-09-24T16:16:57;16.60;;;15.00;;
1218;SDS011;599;51.494;6.670;2022-09-24T16:19:23;18.13;;;13.53;;
1218;SDS011;599;51.494;6.670;2022-09-24T16:21:49;14.77;;;12.93;;
1218;SDS011;599;51.494;6.670;2022-09-24T16:24:16;15.93;;;13.52;;
1218;SDS011;599;51.494;6.670;2022-09-24T16:26:42;18.05;;;13.80;;
1218;SDS011;599;51.494;6.670;2022-09-24T16:29:08;18.60;;;13.30;;
1218;SDS011;599;51.494;6.670;2022-09-24T16:31:36;17.40;;;13.57;;
1218;SDS011;599;51.494;6.670;2022-09-24T16:34:02;13.43;;;11.85;;
1218;SDS011;599;51.494;6.670;2022-09-24T16:36:28;18.58;;;13.25;;
1218;SDS011;599;51.494;6.670;2022-09-24T16:38:55;15.47;;;12.27;;
1218;SDS011;599;51.494;6.670;2022-09-24T16:41:21;14.13;;;12.65;;
1218;SDS011;599;51.494;6.670;2022-09-24T16:43:47;15.60;;;13.53;;
1218;SDS011;599;51.494;6.670;2022-09-24T16:46:13;14.27;;;12.20;;
1218;SDS011;599;51.494;6.670;2022-09-24T16:48:39;14.47;;;12.73;;
1218;SDS011;599;51.494;6.670;2022-09-24T16:51:08;18.75;;;12.82;;
1218;SDS011;599;51.494;6.670;2022-09-24T16:53:35;17.60;;;14.35;;
1218;SDS011;599;51.494;6.670;2022-09-24T16:56:09;17.98;;;13.35;;
1218;SDS011;599;51.494;6.670;2022-09-24T16:58:40;15.38;;;13.07;;
1218;SDS011;599;51.494;6.670;2022-09-24T17:01:08;16.35;;;14.18;;
1218;SDS011;599;51.494;6.670;2022-09-24T17:03:38;14.90;;;13.13;;
1218;SDS011;599;51.494;6.670;2022-09-24T17:06:05;14.68;;;13.18;;
1218;SDS011;599;51.494;6.670;2022-09-24T17:08:32;24.55;;;14.68;;
1218;SDS011;599;51.494;6.670;2022-09-24T17:11:19;15.98;;;13.88;;
1218;SDS011;599;51.494;6.670;2022-09-24T17:13:46;13.32;;;11.73;;
1218;SDS011;599;51.494;6.670;2022-09-24T17:16:12;22.80;;;15.60;;
1218;SDS011;599;51.494;6.670;2022-09-24T17:18:39;20.08;;;14.50;;
1218;SDS011;599;51.494;6.670;2022-09-24T17:21:06;15.15;;;13.65;;
1218;SDS011;599;51.494;6.670;2022-09-24T17:23:35;15.00;;;13.40;;
1218;SDS011;599;51.494;6.670;2022-09-24T17:26:09;15.05;;;13.45;;
1218;SDS011;599;51.494;6.670;2022-09-24T17:28:39;17.98;;;14.27;;
1218;SDS011;599;51.494;6.670;2022-09-24T17:31:08;20.20;;;16.60;;
1218;SDS011;599;51.494;6.670;2022-09-24T17:33:38;19.65;;;15.95;;